EWG24A EDLP-EDDH
Flight info
| Callsign | EWG24A |
|---|---|
| Flight time | 0h 37m |
| Altitude | 23000 |
| Route | WRB1W WRB P12 NORTA/N0395F220 P605 NOLGO NOLGO3P |
| Aircraft | A20N/M-SDE2E3FGHIRWXY/LB1 |
Departure
| Time | 2026-05-04 10:33 |
|---|---|
| Airport | Paderborn Lippstadt Airport (EDLP) |
Arrival
| Time | 2026-05-04 11:10 |
|---|---|
| Airport | Hamburg Helmut Schmidt Airport (EDDH) |
| Time | Latitude | Longitude | Altitude | Speed | Heading |
|---|---|---|---|---|---|
| 2026-05-04 10:19 | 51.61086 | 8.61859 | 709 ft | 0 kts | 144° |
| 2026-05-04 10:25 | 51.61102 | 8.61840 | 715 ft | 2 kts | 144° |
| 2026-05-04 10:25 | 51.61106 | 8.61836 | 715 ft | 2 kts | 144° |
| 2026-05-04 10:25 | 51.61119 | 8.61820 | 712 ft | 2 kts | 141° |
| 2026-05-04 10:25 | 51.61130 | 8.61800 | 713 ft | 2 kts | 82° |
| 2026-05-04 10:26 | 51.61129 | 8.61793 | 714 ft | 0 kts | 62° |
| 2026-05-04 10:28 | 51.61129 | 8.61795 | 714 ft | 1 kts | 62° |
| 2026-05-04 10:28 | 51.61135 | 8.61811 | 712 ft | 2 kts | 58° |
| 2026-05-04 10:28 | 51.61148 | 8.61841 | 713 ft | 4 kts | 57° |
| 2026-05-04 10:29 | 51.61168 | 8.61891 | 701 ft | 6 kts | 56° |
| 2026-05-04 10:29 | 51.61200 | 8.61954 | 708 ft | 8 kts | 37° |
| 2026-05-04 10:29 | 51.61248 | 8.61985 | 699 ft | 9 kts | 17° |
| 2026-05-04 10:29 | 51.61321 | 8.62007 | 704 ft | 11 kts | 11° |
| 2026-05-04 10:30 | 51.61383 | 8.62065 | 706 ft | 10 kts | 39° |
| 2026-05-04 10:30 | 51.61428 | 8.62165 | 698 ft | 12 kts | 57° |
| 2026-05-04 10:30 | 51.61478 | 8.62287 | 699 ft | 14 kts | 55° |
| 2026-05-04 10:30 | 51.61494 | 8.62325 | 701 ft | 15 kts | 56° |
| 2026-05-04 10:31 | 51.61563 | 8.62498 | 702 ft | 22 kts | 57° |
| 2026-05-04 10:31 | 51.61661 | 8.62739 | 696 ft | 29 kts | 57° |
| 2026-05-04 10:32 | 51.61572 | 8.62028 | 698 ft | 118 kts | 237° |
| 2026-05-04 10:33 | 51.61027 | 8.60692 | 991 ft | 151 kts | 240° |
| 2026-05-04 10:33 | 51.60489 | 8.59274 | 1827 ft | 147 kts | 242° |
| 2026-05-04 10:33 | 51.60012 | 8.57809 | 2662 ft | 152 kts | 239° |
| 2026-05-04 10:33 | 51.59321 | 8.56266 | 3200 ft | 188 kts | 231° |
| 2026-05-04 10:34 | 51.58742 | 8.55103 | 3484 ft | 215 kts | 231° |
| 2026-05-04 10:34 | 51.57746 | 8.53080 | 4162 ft | 241 kts | 232° |
| 2026-05-04 10:34 | 51.56279 | 8.50229 | 5535 ft | 255 kts | 220° |
| 2026-05-04 10:34 | 51.55223 | 8.49405 | 6316 ft | 259 kts | 190° |
| 2026-05-04 10:35 | 51.53465 | 8.50027 | 7390 ft | 269 kts | 150° |
| 2026-05-04 10:35 | 51.51935 | 8.51838 | 8420 ft | 277 kts | 144° |
| 2026-05-04 10:35 | 51.50682 | 8.54242 | 9462 ft | 291 kts | 112° |
| 2026-05-04 10:35 | 51.50487 | 8.57512 | 10366 ft | 304 kts | 88° |
| 2026-05-04 10:36 | 51.50660 | 8.60987 | 10828 ft | 329 kts | 86° |
| 2026-05-04 10:36 | 51.50857 | 8.64798 | 11233 ft | 354 kts | 87° |
| 2026-05-04 10:36 | 51.51008 | 8.68826 | 11873 ft | 367 kts | 89° |
| 2026-05-04 10:36 | 51.51109 | 8.72967 | 12706 ft | 374 kts | 90° |
| 2026-05-04 10:37 | 51.51170 | 8.77176 | 13580 ft | 380 kts | 91° |
| 2026-05-04 10:37 | 51.51203 | 8.81472 | 14366 ft | 386 kts | 91° |
| 2026-05-04 10:37 | 51.51220 | 8.85769 | 15143 ft | 391 kts | 92° |
| 2026-05-04 10:37 | 51.51226 | 8.90156 | 15934 ft | 395 kts | 92° |
| 2026-05-04 10:39 | 51.51959 | 9.17340 | 20052 ft | 431 kts | 58° |
| 2026-05-04 10:39 | 51.54010 | 9.20872 | 20654 ft | 435 kts | 38° |
| 2026-05-04 10:39 | 51.56422 | 9.23746 | 21232 ft | 438 kts | 34° |
| 2026-05-04 10:40 | 51.58898 | 9.26658 | 21850 ft | 442 kts | 36° |
| 2026-05-04 10:40 | 51.61280 | 9.29837 | 22439 ft | 447 kts | 40° |
| 2026-05-04 10:40 | 51.63542 | 9.33322 | 23004 ft | 451 kts | 44° |
| 2026-05-04 10:40 | 51.65688 | 9.37034 | 23532 ft | 456 kts | 47° |
| 2026-05-04 10:41 | 51.67768 | 9.40909 | 23981 ft | 460 kts | 49° |
| 2026-05-04 10:41 | 51.69830 | 9.44901 | 24344 ft | 465 kts | 50° |
| 2026-05-04 10:41 | 51.71866 | 9.48899 | 24749 ft | 468 kts | 50° |
| 2026-05-04 10:41 | 51.73940 | 9.52975 | 24958 ft | 469 kts | 50° |
| 2026-05-04 10:42 | 51.76020 | 9.57053 | 24986 ft | 468 kts | 50° |
| 2026-05-04 10:42 | 51.78101 | 9.61118 | 24986 ft | 469 kts | 49° |
| 2026-05-04 10:42 | 51.80164 | 9.65137 | 24988 ft | 469 kts | 49° |
| 2026-05-04 10:42 | 51.82255 | 9.69203 | 24989 ft | 469 kts | 49° |
| 2026-05-04 10:43 | 51.84345 | 9.73267 | 24986 ft | 469 kts | 49° |
| 2026-05-04 10:44 | 52.02754 | 9.83989 | 24983 ft | 443 kts | 347° |
| 2026-05-04 10:45 | 52.05836 | 9.83517 | 24985 ft | 447 kts | 353° |
| 2026-05-04 10:45 | 52.08968 | 9.83518 | 24981 ft | 450 kts | 358° |
| 2026-05-04 10:45 | 52.12106 | 9.83868 | 24992 ft | 453 kts | 1° |
| 2026-05-04 10:45 | 52.15248 | 9.84427 | 24981 ft | 454 kts | 2° |
| 2026-05-04 10:46 | 52.18350 | 9.85075 | 24985 ft | 455 kts | 3° |
| 2026-05-04 10:46 | 52.21500 | 9.85761 | 24987 ft | 455 kts | 3° |
| 2026-05-04 10:46 | 52.24648 | 9.86469 | 24988 ft | 457 kts | 5° |
| 2026-05-04 10:46 | 52.27775 | 9.87497 | 24987 ft | 459 kts | 9° |
| 2026-05-04 10:47 | 52.30879 | 9.88779 | 24989 ft | 460 kts | 11° |
| 2026-05-04 10:47 | 52.33930 | 9.90164 | 24989 ft | 460 kts | 12° |
| 2026-05-04 10:47 | 52.37015 | 9.91606 | 24995 ft | 461 kts | 12° |
| 2026-05-04 10:47 | 52.40109 | 9.93048 | 24990 ft | 461 kts | 11° |
| 2026-05-04 10:49 | 52.61775 | 10.02742 | 24999 ft | 461 kts | 11° |
| 2026-05-04 10:49 | 52.64879 | 10.04126 | 24990 ft | 461 kts | 11° |
| 2026-05-04 10:50 | 52.67978 | 10.05511 | 25000 ft | 461 kts | 11° |
| 2026-05-04 10:51 | 52.89634 | 10.11264 | 24993 ft | 446 kts | 350° |
| 2026-05-04 10:52 | 52.92733 | 10.10934 | 24992 ft | 446 kts | 351° |
| 2026-05-04 10:52 | 52.95848 | 10.10731 | 24992 ft | 448 kts | 353° |
| 2026-05-04 10:52 | 52.97263 | 10.10684 | 24992 ft | 448 kts | 353° |
| 2026-05-04 10:54 | 53.15809 | 10.11702 | 23144 ft | 414 kts | 358° |
| 2026-05-04 10:54 | 53.18681 | 10.11981 | 22458 ft | 412 kts | 357° |
| 2026-05-04 10:56 | 53.38133 | 10.12847 | 18090 ft | 387 kts | 356° |
| 2026-05-04 10:56 | 53.40799 | 10.12780 | 17407 ft | 380 kts | 351° |
| 2026-05-04 10:56 | 53.43418 | 10.12473 | 16753 ft | 374 kts | 350° |
| 2026-05-04 10:57 | 53.45997 | 10.12131 | 16129 ft | 369 kts | 350° |
| 2026-05-04 10:57 | 53.48513 | 10.11796 | 15507 ft | 364 kts | 350° |
| 2026-05-04 10:57 | 53.51031 | 10.11466 | 14890 ft | 359 kts | 351° |
| 2026-05-04 10:57 | 53.53510 | 10.11144 | 14286 ft | 354 kts | 351° |
| 2026-05-04 10:58 | 53.55956 | 10.10829 | 13678 ft | 350 kts | 351° |
| 2026-05-04 10:58 | 53.58378 | 10.10754 | 13026 ft | 350 kts | 2° |
| 2026-05-04 10:58 | 53.60749 | 10.11705 | 12374 ft | 352 kts | 18° |
| 2026-05-04 10:58 | 53.62875 | 10.13666 | 11740 ft | 353 kts | 34° |
| 2026-05-04 10:59 | 53.64637 | 10.16541 | 11109 ft | 353 kts | 50° |
| 2026-05-04 10:59 | 53.65040 | 10.17475 | 10944 ft | 353 kts | 55° |
| 2026-05-04 10:59 | 53.66150 | 10.21155 | 10335 ft | 350 kts | 66° |
| 2026-05-04 10:59 | 53.67144 | 10.24889 | 9714 ft | 346 kts | 62° |
| 2026-05-04 11:00 | 53.68286 | 10.28366 | 9069 ft | 342 kts | 57° |
| 2026-05-04 11:01 | 53.77998 | 10.49631 | 4649 ft | 317 kts | 46° |
| 2026-05-04 11:02 | 53.79709 | 10.51764 | 4164 ft | 299 kts | 15° |
| 2026-05-04 11:02 | 53.81676 | 10.51998 | 3996 ft | 271 kts | 352° |
| 2026-05-04 11:05 | 53.74605 | 10.23526 | 4427 ft | 221 kts | 229° |
| 2026-05-04 11:06 | 53.73540 | 10.21715 | 3953 ft | 215 kts | 229° |
| 2026-05-04 11:06 | 53.72641 | 10.19759 | 3417 ft | 212 kts | 240° |
| 2026-05-04 11:06 | 53.71897 | 10.17625 | 2874 ft | 209 kts | 243° |
| 2026-05-04 11:06 | 53.71145 | 10.15568 | 2358 ft | 204 kts | 236° |
| 2026-05-04 11:08 | 53.66084 | 10.04986 | 741 ft | 152 kts | 234° |
| 2026-05-04 11:10 | 53.62693 | 9.98425 | 54 ft | 8 kts | 135° |
| 2026-05-04 11:12 | 53.63219 | 9.99742 | 51 ft | 13 kts | 118° |
| 2026-05-04 11:12 | 53.63120 | 9.99848 | 52 ft | 19 kts | 154° |
| 2026-05-04 11:12 | 53.63001 | 9.99955 | 51 ft | 21 kts | 150° |
| 2026-05-04 11:12 | 53.62856 | 10.00060 | 53 ft | 22 kts | 167° |
| 2026-05-04 11:13 | 53.62779 | 10.00136 | 52 ft | 5 kts | 105° |
| 2026-05-04 11:13 | 53.62803 | 10.00230 | 52 ft | 10 kts | 63° |
| 2026-05-04 11:13 | 53.62806 | 10.00238 | 53 ft | 0 kts | 63° |